Time;durP1;ratioP1;P1;durP2;ratioP2;P2;SDS_P1;SDS_P2;PMS_P1;PMS_P2;Temp;Humidity;BMP_temperature;BMP_pressure;BME280_temperature;BME280_humidity;BME280_pressure;Samples;Min_cycle;Max_cycle;Signal;HPM_P1;HPM_P2
2022/07/21 00:02:00;;;;;;;9.60;8.20;;;;;;;17.66;64.37;100189.07;214904;1277;140705;-65
2022/07/21 00:07:03;;;;;;;10.30;6.00;;;;;;;17.67;64.39;100187.08;213620;1276;139899;-64
2022/07/21 00:12:06;;;;;;;8.80;6.70;;;;;;;17.65;64.48;100190.18;213543;1276;139912;-64
2022/07/21 00:17:10;;;;;;;8.80;6.10;;;;;;;17.58;64.29;100195.01;213634;1277;140246;-64
2022/07/21 00:22:13;;;;;;;8.10;6.50;;;;;;;17.48;64.36;100197.64;214757;1277;140689;-65
2022/07/21 00:27:16;;;;;;;11.20;6.10;;;;;;;17.44;64.68;100192.20;213952;1276;140030;-64
2022/07/21 00:32:19;;;;;;;11.80;6.30;;;;;;;17.41;64.91;100194.74;213562;1276;139939;-63
2022/07/21 00:37:23;;;;;;;9.50;6.40;;;;;;;17.41;65.12;100197.60;213426;1276;141448;-63
2022/07/21 00:42:29;;;;;;;8.10;5.00;;;;;;;17.36;65.16;100197.06;213391;1276;141191;-63
2022/07/21 00:47:32;;;;;;;7.00;5.80;;;;;;;17.35;65.21;100197.92;212836;1276;151535;-63
2022/07/21 00:52:34;;;;;;;6.90;5.40;;;;;;;17.41;65.17;100204.50;213994;1276;140000;-64
2022/07/21 00:57:36;;;;;;;5.10;4.60;;;;;;;17.45;65.31;100206.26;214883;1276;140957;-65
2022/07/21 01:02:40;;;;;;;6.80;4.50;;;;;;;17.44;65.25;100206.15;213215;1276;163077;-63
2022/07/21 01:07:48;;;;;;;5.10;4.60;;;;;;;17.51;65.25;100206.05;213203;1276;142297;-62
2022/07/21 01:12:51;;;;;;;7.40;5.50;;;;;;;17.62;65.11;100208.17;214413;1276;143331;-63
2022/07/21 01:17:54;;;;;;;5.80;5.20;;;;;;;17.71;65.01;100211.77;213044;1277;140801;-64
2022/07/21 01:22:56;;;;;;;5.90;4.90;;;;;;;17.78;65.06;100211.05;214260;1277;140093;-65
2022/07/21 01:27:59;;;;;;;6.60;5.50;;;;;;;17.82;64.91;100211.64;213256;1276;140048;-65
2022/07/21 01:33:01;;;;;;;10.30;5.40;;;;;;;17.86;64.90;100209.96;214989;1276;140952;-65
2022/07/21 01:41:28;;;;;;;6.40;5.60;;;;;;;17.89;64.88;100205.33;215748;1276;140794;-65
2022/07/21 01:43:27;;;;;;;6.10;5.20;;;;;;;17.95;64.57;100201.02;215312;1278;140959;-64
2022/07/21 01:48:30;;;;;;;8.30;5.30;;;;;;;17.99;64.54;100196.64;215819;1276;139961;-65
2022/07/21 01:53:33;;;;;;;10.20;5.30;;;;;;;18.02;64.54;100201.23;215784;1276;140376;-65
2022/07/21 01:58:36;;;;;;;6.90;5.60;;;;;;;18.01;64.53;100198.14;215846;1276;140027;-65
2022/07/21 02:03:38;;;;;;;8.00;5.10;;;;;;;18.00;64.53;100190.55;215225;1276;142281;-64
2022/07/21 02:08:44;;;;;;;9.10;6.20;;;;;;;18.00;64.45;100185.42;214514;1276;139614;-63
2022/07/21 02:13:48;;;;;;;9.10;4.70;;;;;;;18.00;64.55;100190.81;214196;1276;140136;-64
2022/07/21 02:18:52;;;;;;;9.40;5.30;;;;;;;18.00;64.66;100195.08;214108;1276;140861;-63
2022/07/21 02:23:57;;;;;;;8.60;5.00;;;;;;;18.01;64.60;100192.98;213943;1276;140374;-65
2022/07/21 02:29:00;;;;;;;7.20;5.20;;;;;;;18.02;64.85;100190.05;213654;1278;139741;-64
2022/07/21 02:34:03;;;;;;;6.70;5.60;;;;;;;18.01;64.97;100190.05;213806;1276;140216;-64
2022/07/21 02:39:06;;;;;;;6.80;5.30;;;;;;;18.00;64.92;100190.98;212943;1278;139526;-64
2022/07/21 02:44:13;;;;;;;5.30;4.80;;;;;;;18.01;64.91;100196.21;213963;1278;140354;-64
2022/07/21 02:49:16;;;;;;;12.80;5.50;;;;;;;18.06;64.86;100195.85;212732;1277;139694;-64
2022/07/21 02:54:21;;;;;;;8.10;6.50;;;;;;;18.08;64.88;100188.67;213379;1278;140388;-63
2022/07/21 02:59:24;;;;;;;7.60;5.50;;;;;;;18.09;65.04;100181.66;214051;1276;141240;-63
2022/07/21 03:04:28;;;;;;;5.30;4.90;;;;;;;18.06;65.02;100179.94;213031;1276;140680;-64
2022/07/21 03:09:31;;;;;;;6.70;5.80;;;;;;;18.07;64.96;100176.42;212974;1276;141247;-64
2022/07/21 03:14:34;;;;;;;10.50;5.60;;;;;;;18.08;65.11;100175.61;213987;1277;140565;-63
2022/07/21 03:19:37;;;;;;;7.40;6.50;;;;;;;18.10;65.00;100169.61;214408;1276;140643;-63
2022/07/21 03:24:39;;;;;;;5.40;4.70;;;;;;;18.16;65.18;100168.33;213029;1276;139859;-64
2022/07/21 03:29:42;;;;;;;5.50;4.90;;;;;;;18.21;65.19;100168.05;214411;1276;141055;-64
2022/07/21 03:34:45;;;;;;;6.90;5.90;;;;;;;18.29;65.22;100173.70;215228;1276;139734;-64
2022/07/21 03:39:48;;;;;;;6.40;5.70;;;;;;;18.40;65.25;100176.23;213926;1276;141335;-64
2022/07/21 03:44:50;;;;;;;6.80;5.70;;;;;;;18.55;65.08;100173.80;215775;1276;141419;-64
2022/07/21 03:49:52;;;;;;;5.90;5.40;;;;;;;18.77;65.13;100166.86;215878;1276;141210;-65
2022/07/21 03:55:07;;;;;;;14.80;5.10;;;;;;;18.97;64.94;100165.02;215888;1276;142982;-63
2022/07/21 04:00:23;;;;;;;5.30;4.90;;;;;;;19.21;64.71;100168.48;214087;1276;140001;-64
2022/07/21 04:05:29;;;;;;;8.50;5.00;;;;;;;19.55;64.27;100170.09;213214;1276;141200;-65
2022/07/21 04:10:34;;;;;;;7.10;5.20;;;;;;;19.75;63.87;100169.31;214756;1277;141584;-64
2022/07/21 04:15:39;;;;;;;9.40;5.10;;;;;;;19.98;63.43;100163.31;214257;1276;139380;-65
2022/07/21 04:20:41;;;;;;;5.70;4.80;;;;;;;20.26;63.02;100167.17;214100;1276;140342;-64
2022/07/21 04:25:44;;;;;;;9.00;4.90;;;;;;;20.45;62.72;100162.52;213292;1276;140361;-63
2022/07/21 04:30:48;;;;;;;6.20;4.90;;;;;;;20.73;62.16;100168.79;213959;1276;140915;-64
2022/07/21 04:35:51;;;;;;;6.40;5.70;;;;;;;21.34;61.53;100172.00;214536;1277;139670;-63
2022/07/21 04:40:53;;;;;;;5.90;5.00;;;;;;;21.99;60.46;100178.38;213738;1277;232695;-64
2022/07/21 04:45:55;;;;;;;6.00;4.40;;;;;;;22.91;58.94;100182.70;214310;1277;140028;-63
2022/07/21 04:50:58;;;;;;;5.50;4.90;;;;;;;23.33;57.67;100182.95;214222;1276;141222;-64
2022/07/21 04:56:02;;;;;;;7.10;5.70;;;;;;;23.79;56.56;100182.33;213418;1276;141116;-63
2022/07/21 05:01:05;;;;;;;8.70;5.90;;;;;;;23.55;56.17;100182.33;213487;1277;142564;-64
2022/07/21 05:06:09;;;;;;;7.00;6.30;;;;;;;23.53;55.90;100174.02;213207;1278;140916;-63
2022/07/21 05:11:12;;;;;;;6.10;4.40;;;;;;;24.23;54.30;100176.38;213277;1277;140830;-63
2022/07/21 05:16:14;;;;;;;6.00;5.40;;;;;;;24.07;54.32;100181.68;212668;1276;140668;-63
2022/07/21 05:21:17;;;;;;;5.70;5.20;;;;;;;24.39;53.53;100189.97;213233;1276;141052;-63
2022/07/21 05:26:21;;;;;;;5.00;4.60;;;;;;;26.96;50.60;100191.63;212705;1277;141185;-64
2022/07/21 05:31:25;;;;;;;10.50;4.80;;;;;;;29.68;46.48;100193.80;214902;1276;140383;-63
2022/07/21 05:36:31;;;;;;;5.50;4.70;;;;;;;31.55;43.40;100193.90;215871;1277;140277;-65
2022/07/21 05:41:33;;;;;;;4.60;4.20;;;;;;;33.39;40.86;100194.55;215929;1276;140341;-63
2022/07/21 05:46:39;;;;;;;7.10;3.70;;;;;;;35.33;38.97;100202.34;215851;1276;140462;-64
2022/07/21 05:51:42;;;;;;;3.70;3.40;;;;;;;36.87;36.63;100209.85;212543;1277;563167;-63
2022/07/21 05:56:44;;;;;;;3.40;3.10;;;;;;;38.84;34.87;100216.05;215064;1277;141701;-63
2022/07/21 06:01:47;;;;;;;3.20;2.50;;;;;;;40.25;32.27;100215.16;214769;1276;139206;-64
2022/07/21 06:06:57;;;;;;;3.50;2.20;;;;;;;40.86;29.88;100218.54;214692;1277;140875;-64
2022/07/21 06:12:00;;;;;;;5.20;2.50;;;;;;;40.72;27.89;100216.17;214814;1277;139871;-63
2022/07/21 06:17:03;;;;;;;4.60;2.70;;;;;;;40.08;27.36;100216.48;214788;1276;141446;-65
2022/07/21 06:22:10;;;;;;;3.00;2.70;;;;;;;40.26;27.72;100211.08;214447;1277;140423;-64
2022/07/21 06:27:12;;;;;;;2.90;2.60;;;;;;;40.68;26.92;100210.17;213039;1276;140524;-63
2022/07/21 06:32:18;;;;;;;3.20;2.60;;;;;;;41.01;26.37;100214.48;213194;1276;140441;-63
2022/07/21 06:37:21;;;;;;;4.10;3.60;;;;;;;40.14;26.42;100209.81;212873;1276;140841;-65
2022/07/21 06:42:24;;;;;;;2.70;2.50;;;;;;;39.15;27.20;100205.25;213810;1277;140529;-65
2022/07/21 06:47:36;;;;;;;3.40;2.70;;;;;;;39.13;27.74;100201.92;213495;1276;140213;-65
2022/07/21 06:52:42;;;;;;;2.80;2.60;;;;;;;38.42;27.75;100200.73;213054;1277;139527;-65
2022/07/21 06:57:45;;;;;;;3.90;2.60;;;;;;;36.57;28.81;100207.78;212805;1277;139492;-65
2022/07/21 07:02:49;;;;;;;6.00;2.40;;;;;;;35.42;29.42;100209.69;213163;1277;139977;-64
2022/07/21 07:07:53;;;;;;;5.00;3.80;;;;;;;34.48;30.42;100210.29;213130;1276;139832;-65
2022/07/21 07:12:56;;;;;;;3.10;2.80;;;;;;;34.89;30.79;100214.05;212801;1276;139768;-64
2022/07/21 07:18:22;;;;;;;3.60;3.30;;;;;;;36.04;31.38;100215.23;212547;1277;140287;-66
2022/07/21 07:23:24;;;;;;;3.90;3.10;;;;;;;37.35;29.89;100222.29;214453;1277;140174;-67
2022/07/21 07:28:26;;;;;;;3.40;2.70;;;;;;;37.50;29.98;100218.17;214790;1276;139996;-67
2022/07/21 07:33:28;;;;;;;4.10;3.20;;;;;;;37.75;29.85;100223.29;215801;1276;139905;-67
2022/07/21 07:38:31;;;;;;;3.20;2.80;;;;;;;37.65;29.59;100228.82;215798;1276;140672;-66
2022/07/21 07:43:34;;;;;;;;;;;;;;;37.49;29.18;100228.73;215659;1276;140224;-66
2022/07/21 07:48:37;;;;;;;6.50;3.00;;;;;;;36.52;29.78;100228.67;216561;1276;126922;-66
2022/07/21 07:53:41;;;;;;;3.30;3.00;;;;;;;36.52;30.87;100219.72;215883;1276;141088;-65
2022/07/21 07:58:45;;;;;;;3.40;3.10;;;;;;;36.61;30.68;100218.76;213615;1276;142256;-65
2022/07/21 08:03:47;;;;;;;3.80;3.50;;;;;;;36.37;30.88;100213.55;214092;1276;141254;-65
2022/07/21 08:08:51;;;;;;;4.00;3.70;;;;;;;36.16;30.68;100212.90;215422;1276;140711;-64
2022/07/21 08:13:54;;;;;;;7.10;3.10;;;;;;;35.89;31.17;100208.11;214759;1277;140045;-64
2022/07/21 08:19:00;;;;;;;7.90;4.10;;;;;;;35.88;31.77;100197.01;214963;1277;140300;-65
2022/07/21 08:24:03;;;;;;;6.80;4.10;;;;;;;35.92;31.04;100191.39;213771;1277;140943;-65
2022/07/21 08:29:07;;;;;;;7.80;4.20;;;;;;;35.66;31.18;100189.59;214286;1276;139239;-66
2022/07/21 08:34:10;;;;;;;3.90;3.20;;;;;;;35.72;31.75;100188.65;212694;1276;234100;-65
2022/07/21 08:39:13;;;;;;;5.90;3.80;;;;;;;35.78;31.54;100187.00;213240;1276;141030;-64
2022/07/21 08:44:18;;;;;;;4.00;3.60;;;;;;;35.60;31.62;100177.05;215159;1276;140499;-64
2022/07/21 08:49:22;;;;;;;12.90;4.10;;;;;;;35.58;31.86;100170.48;213696;1277;140327;-64
2022/07/21 08:54:26;;;;;;;4.40;4.00;;;;;;;35.88;31.50;100172.44;212773;1276;139345;-64
2022/07/21 08:59:29;;;;;;;3.50;3.30;;;;;;;35.96;31.23;100169.36;212937;1276;140163;-64
2022/07/21 09:04:34;;;;;;;6.30;4.40;;;;;;;36.23;31.52;100167.21;213181;1276;140538;-64
2022/07/21 09:09:43;;;;;;;4.60;4.20;;;;;;;36.36;30.83;100168.02;212596;1276;139570;-63
2022/07/21 09:14:46;;;;;;;7.20;3.70;;;;;;;36.41;30.33;100166.98;213303;1276;139344;-64
2022/07/21 09:19:51;;;;;;;7.80;4.00;;;;;;;36.11;30.56;100167.69;213711;1277;139538;-65
2022/07/21 09:24:55;;;;;;;3.60;3.20;;;;;;;35.72;30.49;100161.15;213014;1276;140197;-65
2022/07/21 09:30:00;;;;;;;4.00;3.50;;;;;;;35.58;30.80;100156.29;213156;1276;140024;-65
2022/07/21 09:35:13;;;;;;;4.10;3.70;;;;;;;35.74;30.82;100150.54;215536;1276;140029;-65
2022/07/21 09:40:20;;;;;;;4.70;4.30;;;;;;;35.78;30.57;100145.40;215544;1277;139440;-67
2022/07/21 09:45:24;;;;;;;4.50;3.60;;;;;;;35.29;30.43;100138.00;215318;1277;140238;-67
2022/07/21 09:50:28;;;;;;;6.00;3.80;;;;;;;35.12;30.74;100142.77;215069;1275;140022;-65
2022/07/21 09:55:35;;;;;;;6.50;3.50;;;;;;;35.38;31.08;100144.20;214965;1274;139537;-66
2022/07/21 10:00:44;;;;;;;6.00;4.00;;;;;;;35.78;31.05;100147.92;215704;1276;140111;-65
2022/07/21 10:05:50;;;;;;;3.80;3.50;;;;;;;36.01;29.95;100145.82;213420;1276;140186;-66
2022/07/21 10:10:54;;;;;;;3.70;3.40;;;;;;;35.90;29.76;100140.27;213692;1275;140385;-65
2022/07/21 10:16:20;;;;;;;4.00;3.70;;;;;;;35.70;29.43;100138.41;213817;1277;139305;-65
2022/07/21 10:21:49;;;;;;;6.10;3.90;;;;;;;35.51;29.19;100136.31;213342;1276;139623;-65
2022/07/21 10:27:04;;;;;;;5.20;2.80;;;;;;;35.61;28.83;100137.27;213678;1279;140292;-65
2022/07/21 10:32:18;;;;;;;3.50;2.60;;;;;;;35.51;29.17;100141.30;212853;1276;140277;-64
2022/07/21 10:37:40;;;;;;;4.20;3.40;;;;;;;35.68;28.88;100134.52;213042;1277;141057;-66
2022/07/21 10:42:42;;;;;;;3.00;2.80;;;;;;;35.75;27.93;100122.41;214104;1279;140414;-65
2022/07/21 10:47:45;;;;;;;7.10;3.10;;;;;;;35.68;27.78;100118.43;213725;1278;140213;-65
2022/07/21 10:52:55;;;;;;;8.60;3.70;;;;;;;35.84;27.35;100109.59;212969;1279;204537;-65
2022/07/21 10:58:25;;;;;;;7.90;4.90;;;;;;;35.67;27.32;100107.98;213539;1279;138988;-65
2022/07/21 11:03:31;;;;;;;8.90;3.60;;;;;;;35.70;27.43;100106.39;212724;1277;140526;-65
2022/07/21 11:08:38;;;;;;;10.50;3.60;;;;;;;35.69;26.91;100109.80;213520;1277;141252;-66
2022/07/21 11:14:04;;;;;;;3.00;2.70;;;;;;;35.88;27.58;100110.94;213841;1277;139784;-64
2022/07/21 11:19:26;;;;;;;5.00;3.90;;;;;;;35.79;26.92;100112.20;214426;1279;233108;-66
2022/07/21 11:24:33;;;;;;;3.20;2.70;;;;;;;35.53;27.03;100107.47;214659;1277;140135;-66
2022/07/21 11:29:39;;;;;;;6.90;3.20;;;;;;;35.73;27.35;100105.45;214453;1277;140766;-67
2022/07/21 11:34:45;;;;;;;9.10;3.60;;;;;;;35.77;26.45;100102.59;215264;1277;141925;-66
2022/07/21 11:39:48;;;;;;;3.90;2.70;;;;;;;35.77;26.52;100099.04;215265;1277;142119;-66
2022/07/21 11:44:51;;;;;;;4.10;3.10;;;;;;;35.75;26.26;100090.08;215407;1277;140526;-65
2022/07/21 11:49:56;;;;;;;11.90;4.30;;;;;;;35.73;25.84;100088.58;215142;1278;140529;-66
2022/07/21 11:55:02;;;;;;;7.00;3.30;;;;;;;35.92;25.80;100078.66;215603;1277;140432;-66
2022/07/21 12:00:08;;;;;;;4.10;3.70;;;;;;;35.93;25.65;100078.03;213962;1279;140338;-66
2022/07/21 12:05:14;;;;;;;5.30;3.50;;;;;;;35.56;25.52;100068.42;213324;1278;140124;-66
2022/07/21 12:10:28;;;;;;;4.10;3.60;;;;;;;35.39;25.81;100066.84;214323;1277;140113;-66
2022/07/21 12:15:37;;;;;;;6.00;3.30;;;;;;;35.48;26.39;100065.17;213929;1277;139529;-65
2022/07/21 12:20:42;;;;;;;4.50;3.20;;;;;;;35.52;26.22;100064.79;213347;1277;140307;-66
2022/07/21 12:25:49;;;;;;;7.20;3.50;;;;;;;35.70;26.42;100055.13;213560;1277;140082;-65
2022/07/21 12:31:11;;;;;;;6.40;3.80;;;;;;;35.76;26.45;100055.21;213385;1279;140699;-66
2022/07/21 12:36:15;;;;;;;4.40;4.00;;;;;;;35.91;25.92;100049.51;213608;1278;140378;-64
2022/07/21 12:41:20;;;;;;;5.50;3.30;;;;;;;35.90;26.25;100048.23;213701;1277;139786;-65
2022/07/21 12:46:33;;;;;;;6.40;3.90;;;;;;;36.01;26.38;100043.23;213015;1277;139951;-66
2022/07/21 12:51:37;;;;;;;9.50;3.70;;;;;;;35.93;26.08;100038.64;213270;1277;140582;-65
2022/07/21 12:56:39;;;;;;;5.20;4.70;;;;;;;35.89;26.42;100036.52;213702;1277;139581;-66
2022/07/21 13:01:42;;;;;;;4.80;3.20;;;;;;;35.74;26.05;100030.73;213866;1277;140247;-65
2022/07/21 13:06:47;;;;;;;7.80;4.10;;;;;;;35.76;26.51;100026.77;214351;1277;139618;-66
2022/07/21 13:11:50;;;;;;;5.10;4.20;;;;;;;35.82;26.28;100023.60;213592;1278;139656;-66
2022/07/21 13:16:52;;;;;;;10.30;3.70;;;;;;;35.66;26.08;100012.66;213041;1277;140187;-65
2022/07/21 13:21:55;;;;;;;4.00;3.20;;;;;;;35.43;26.01;100002.59;213593;1277;141501;-66
2022/07/21 13:26:58;;;;;;;3.70;3.50;;;;;;;35.21;26.25;99997.27;213621;1277;139435;-64
2022/07/21 13:32:06;;;;;;;5.00;3.60;;;;;;;35.18;26.30;99994.17;213181;1278;141119;-65
2022/07/21 13:37:11;;;;;;;4.30;3.70;;;;;;;35.21;26.08;99988.86;215294;1277;141423;-68
2022/07/21 13:42:33;;;;;;;9.00;4.00;;;;;;;35.11;26.30;99989.41;215252;1278;139980;-68
2022/07/21 13:47:56;;;;;;;5.50;3.10;;;;;;;35.07;26.15;99985.61;214628;1277;139456;-66
2022/07/21 13:52:59;;;;;;;3.80;3.50;;;;;;;35.04;26.07;99987.28;215496;1278;140025;-69
2022/07/21 13:58:02;;;;;;;4.20;3.70;;;;;;;34.98;25.99;99982.03;214400;1278;141170;-67
2022/07/21 14:03:04;;;;;;;10.00;3.80;;;;;;;34.93;26.00;99978.55;214258;1278;142187;-65
2022/07/21 14:08:07;;;;;;;5.30;3.60;;;;;;;35.01;25.96;99977.77;214762;1279;139770;-65
2022/07/21 14:13:10;;;;;;;7.00;3.80;;;;;;;35.04;25.90;99973.74;214069;1279;139799;-65
2022/07/21 14:18:13;;;;;;;4.70;3.20;;;;;;;35.09;26.15;99972.48;213989;1277;139641;-66
2022/07/21 14:23:19;;;;;;;10.70;4.20;;;;;;;35.10;26.17;99969.15;213623;1278;140002;-65
2022/07/21 14:28:23;;;;;;;6.30;3.80;;;;;;;34.94;26.54;99958.75;213705;1278;139429;-65
2022/07/21 14:33:28;;;;;;;13.20;4.00;;;;;;;34.85;26.26;99948.77;213414;1278;141121;-64
2022/07/21 14:38:33;;;;;;;10.30;3.70;;;;;;;34.78;26.44;99946.39;212953;1278;140639;-64
2022/07/21 14:43:37;;;;;;;4.60;4.10;;;;;;;34.75;26.33;99945.58;214397;1278;141799;-64
2022/07/21 14:48:40;;;;;;;5.00;3.20;;;;;;;34.71;26.20;99947.70;213663;1277;142046;-65
2022/07/21 14:53:44;;;;;;;8.90;4.20;;;;;;;34.62;26.44;99949.25;213291;1279;139985;-65
2022/07/21 14:58:47;;;;;;;8.40;4.20;;;;;;;34.65;26.84;99941.04;212732;1278;141018;-64
2022/07/21 15:03:52;;;;;;;6.00;3.70;;;;;;;34.64;26.32;99938.27;213161;1278;140773;-64
2022/07/21 15:08:58;;;;;;;13.10;4.50;;;;;;;34.48;26.39;99940.77;214390;1277;140956;-65
2022/07/21 15:14:01;;;;;;;8.60;4.80;;;;;;;34.43;26.46;99929.11;213646;1278;139547;-64
2022/07/21 15:19:04;;;;;;;8.30;4.30;;;;;;;34.43;26.82;99922.63;214739;1277;139807;-64
2022/07/21 15:24:08;;;;;;;4.50;3.20;;;;;;;34.46;26.93;99921.23;214364;1278;140256;-65
2022/07/21 15:29:11;;;;;;;;;;;;;;;34.43;26.62;99916.95;213177;1277;231705;-64
2022/07/21 15:34:14;;;;;;;4.30;3.50;;;;;;;34.17;26.44;99914.23;214702;1279;125874;-64
2022/07/21 15:39:21;;;;;;;6.50;3.70;;;;;;;34.06;26.17;99910.05;215011;1279;139468;-65
2022/07/21 15:44:25;;;;;;;9.10;4.30;;;;;;;33.90;26.21;99901.85;215378;1277;140031;-65
2022/07/21 15:49:28;;;;;;;7.60;3.60;;;;;;;33.71;26.22;99900.92;215540;1278;139889;-65
2022/07/21 15:54:30;;;;;;;10.00;3.90;;;;;;;33.62;26.57;99898.67;215352;1278;140102;-68
2022/07/21 15:59:56;;;;;;;9.80;4.20;;;;;;;33.56;26.51;99893.66;213679;1277;140663;-64
2022/07/21 16:05:00;;;;;;;6.40;4.30;;;;;;;33.49;26.59;99894.48;214101;1278;140017;-65
2022/07/21 16:10:04;;;;;;;4.00;3.40;;;;;;;33.44;27.02;99892.39;214534;1276;139433;-65
2022/07/21 16:15:10;;;;;;;5.80;3.70;;;;;;;33.38;27.29;99887.70;213777;1279;141231;-64
2022/07/21 16:20:15;;;;;;;5.80;4.20;;;;;;;33.28;27.13;99884.38;213052;1279;141067;-64
2022/07/21 16:25:21;;;;;;;31.30;5.50;;;;;;;33.11;27.16;99878.47;214243;1279;143185;-65
2022/07/21 16:30:28;;;;;;;6.30;4.00;;;;;;;32.97;27.22;99878.84;212922;1279;139988;-65
2022/07/21 16:35:31;;;;;;;7.90;3.80;;;;;;;32.85;27.50;99877.94;213143;1278;141768;-64
2022/07/21 16:40:34;;;;;;;5.10;3.40;;;;;;;32.73;27.59;99877.02;212572;1279;140155;-64
2022/07/21 16:45:38;;;;;;;5.80;3.30;;;;;;;32.62;27.98;99874.64;213275;1278;142144;-64
2022/07/21 16:50:40;;;;;;;6.10;4.70;;;;;;;32.56;28.31;99873.30;212737;1279;141145;-64
2022/07/21 16:55:44;;;;;;;8.70;4.20;;;;;;;32.40;28.29;99875.50;213492;1279;221911;-63
2022/07/21 17:00:49;;;;;;;9.40;4.10;;;;;;;32.24;28.61;99869.48;213158;1278;141369;-63
2022/07/21 17:05:54;;;;;;;6.20;4.00;;;;;;;32.13;28.94;99867.05;213152;1279;140054;-64
2022/07/21 17:10:57;;;;;;;7.60;4.60;;;;;;;31.97;28.93;99865.76;213787;1279;141077;-63
2022/07/21 17:15:59;;;;;;;9.20;4.30;;;;;;;31.79;29.55;99867.90;214346;1278;140744;-64
2022/07/21 17:21:05;;;;;;;10.90;4.50;;;;;;;31.68;29.97;99867.04;212726;1279;139993;-64
2022/07/21 17:26:08;;;;;;;21.00;5.20;;;;;;;31.56;30.46;99867.86;214067;1278;139955;-64
2022/07/21 17:31:12;;;;;;;6.20;4.20;;;;;;;31.46;31.28;99861.44;215573;1279;139740;-64
2022/07/21 17:36:15;;;;;;;8.00;4.10;;;;;;;31.34;32.09;99858.98;214559;1278;141169;-64
2022/07/21 17:41:18;;;;;;;6.10;3.70;;;;;;;31.20;32.49;99858.61;215495;1278;140783;-66
2022/07/21 17:46:22;;;;;;;5.30;4.30;;;;;;;31.04;33.23;99858.80;215112;1279;140805;-65
2022/07/21 17:51:25;;;;;;;7.50;5.20;;;;;;;30.86;34.25;99852.14;215455;1279;141129;-66
2022/07/21 17:56:28;;;;;;;13.30;5.00;;;;;;;30.64;34.93;99850.19;214134;1278;506980;-65
2022/07/21 18:01:34;;;;;;;7.30;4.70;;;;;;;30.42;35.41;99849.05;214349;1277;139695;-65
2022/07/21 18:06:37;;;;;;;9.10;4.70;;;;;;;30.19;35.75;99850.66;214264;1278;143135;-65
2022/07/21 18:11:42;;;;;;;6.20;4.60;;;;;;;29.94;37.13;99850.39;213551;1278;143411;-65
2022/07/21 18:16:45;;;;;;;12.50;4.50;;;;;;;29.65;37.62;99853.21;212931;1279;140503;-69
2022/07/21 18:21:50;;;;;;;;;;;;;;;29.31;38.35;99850.63;213085;1277;142566;-65
2022/07/21 18:26:53;;;;;;;33.70;6.50;;;;;;;28.93;39.72;99845.88;214209;1279;128673;-64
2022/07/21 18:31:58;;;;;;;11.40;5.30;;;;;;;28.63;40.31;99844.45;213164;1279;140734;-65
2022/07/21 18:37:02;;;;;;;6.80;5.50;;;;;;;28.30;41.08;99841.47;214022;1278;139622;-65
2022/07/21 18:42:07;;;;;;;12.70;5.30;;;;;;;28.02;41.56;99841.61;213886;1279;140622;-65
2022/07/21 18:47:15;;;;;;;16.80;5.80;;;;;;;27.71;42.12;99839.30;213617;1279;139591;-65
2022/07/21 18:52:18;;;;;;;12.20;5.80;;;;;;;27.42;42.97;99843.42;213549;1279;140286;-66
2022/07/21 18:57:36;;;;;;;13.40;6.10;;;;;;;27.13;43.66;99851.65;213387;1278;140018;-64
2022/07/21 19:02:46;;;;;;;15.10;6.80;;;;;;;26.74;44.32;99843.85;212469;1278;139578;-64
2022/07/21 19:07:49;;;;;;;8.50;5.70;;;;;;;26.41;44.97;99846.55;213306;1279;141515;-63
2022/07/21 19:12:52;;;;;;;11.60;6.80;;;;;;;26.19;45.32;99854.75;213802;1278;139572;-65
2022/07/21 19:17:55;;;;;;;6.60;5.60;;;;;;;26.00;45.52;99859.27;213899;1278;140385;-65
2022/07/21 19:22:57;;;;;;;6.50;5.00;;;;;;;25.77;45.94;99854.59;214030;1278;140695;-63
2022/07/21 19:28:04;;;;;;;9.80;5.20;;;;;;;25.56;46.32;99851.27;215274;1278;140005;-63
2022/07/21 19:33:06;;;;;;;8.10;6.10;;;;;;;25.36;46.93;99856.73;212856;1279;140030;-64
2022/07/21 19:38:08;;;;;;;6.40;5.70;;;;;;;25.14;47.35;99860.44;215294;1278;140821;-64
2022/07/21 19:43:11;;;;;;;7.20;5.80;;;;;;;24.90;47.81;99857.90;215330;1279;140361;-65
2022/07/21 19:48:17;;;;;;;12.00;6.70;;;;;;;24.73;48.40;99858.65;215336;1278;139533;-64
2022/07/21 19:53:21;;;;;;;6.40;5.60;;;;;;;24.55;48.47;99858.52;215279;1279;140252;-65
2022/07/21 19:58:23;;;;;;;7.20;6.00;;;;;;;24.33;49.00;99855.94;214630;1279;139530;-64
2022/07/21 20:03:26;;;;;;;11.80;6.40;;;;;;;24.13;49.39;99848.50;212950;1279;140058;-65
2022/07/21 20:08:28;;;;;;;12.70;5.70;;;;;;;23.98;49.88;99846.96;213653;1278;140297;-65
2022/07/21 20:13:32;;;;;;;13.80;6.30;;;;;;;23.83;50.21;99849.27;213786;1279;141706;-63
2022/07/21 20:18:40;;;;;;;11.30;6.00;;;;;;;23.67;50.56;99849.48;214236;1280;141424;-64
2022/07/21 20:23:44;;;;;;;10.50;5.00;;;;;;;23.46;50.86;99846.91;213497;1279;139610;-66
2022/07/21 20:28:47;;;;;;;6.60;5.70;;;;;;;23.12;51.17;99842.16;213050;1280;140758;-62
2022/07/21 20:33:49;;;;;;;7.80;6.50;;;;;;;22.91;51.95;99843.41;213711;1279;139635;-62
2022/07/21 20:38:52;;;;;;;11.40;5.90;;;;;;;22.79;52.02;99841.20;213589;1278;140758;-65
2022/07/21 20:43:55;;;;;;;8.50;6.60;;;;;;;22.71;52.47;99838.48;213400;1278;140172;-63
2022/07/21 20:49:00;;;;;;;10.90;6.20;;;;;;;22.64;52.57;99835.64;212982;1279;141728;-66
2022/07/21 20:54:03;;;;;;;10.60;7.40;;;;;;;22.55;52.89;99831.86;213885;1279;141887;-64
2022/07/21 20:59:06;;;;;;;12.20;7.00;;;;;;;22.46;53.09;99829.45;212952;1280;140801;-63
2022/07/21 21:04:12;;;;;;;11.10;6.70;;;;;;;22.38;53.35;99831.63;212785;1281;142063;-64
2022/07/21 21:09:15;;;;;;;7.30;6.40;;;;;;;22.29;53.75;99822.09;213426;1278;140226;-66
2022/07/21 21:14:18;;;;;;;10.60;6.60;;;;;;;22.18;53.72;99819.15;213626;1278;139540;-65
2022/07/21 21:19:21;;;;;;;8.90;6.20;;;;;;;22.05;53.65;99810.55;213973;1278;139658;-64
2022/07/21 21:24:30;;;;;;;6.70;5.70;;;;;;;21.99;53.62;99804.69;214173;1277;139708;-65
2022/07/21 21:29:33;;;;;;;8.90;6.30;;;;;;;21.95;53.71;99809.39;215005;1278;139779;-64
2022/07/21 21:34:36;;;;;;;8.20;6.00;;;;;;;21.96;53.71;99808.11;214487;1280;139526;-64
2022/07/21 21:39:38;;;;;;;9.50;6.30;;;;;;;21.94;53.73;99804.36;215154;1278;139774;-65
2022/07/21 21:44:41;;;;;;;13.10;6.30;;;;;;;21.94;53.62;99800.77;214501;1280;140103;-64
2022/07/21 21:49:44;;;;;;;12.10;5.50;;;;;;;21.90;53.65;99798.58;215390;1279;140058;-63
2022/07/21 21:54:47;;;;;;;7.80;5.80;;;;;;;21.86;53.78;99795.36;215200;1279;140038;-65
2022/07/21 21:59:49;;;;;;;8.70;6.00;;;;;;;21.87;53.65;99796.77;214486;1279;139849;-65
2022/07/21 22:04:52;;;;;;;8.90;4.70;;;;;;;21.89;53.44;99797.13;214920;1278;141730;-63
2022/07/21 22:09:55;;;;;;;9.70;5.80;;;;;;;21.97;53.22;99800.70;215068;1278;141093;-65
2022/07/21 22:14:58;;;;;;;9.20;5.50;;;;;;;22.03;52.98;99801.05;214591;1279;139556;-65
2022/07/21 22:20:03;;;;;;;6.00;5.00;;;;;;;22.05;52.91;99803.49;214014;1279;139464;-65
2022/07/21 22:25:08;;;;;;;6.10;5.40;;;;;;;22.06;52.89;99804.95;213642;1278;140375;-65
2022/07/21 22:30:12;;;;;;;9.50;5.90;;;;;;;22.04;52.93;99799.19;213629;1278;139912;-64
2022/07/21 22:35:15;;;;;;;6.90;5.00;;;;;;;21.95;52.94;99791.02;214740;1278;140388;-65
2022/07/21 22:40:19;;;;;;;14.30;6.70;;;;;;;21.89;53.03;99790.74;213715;1278;141414;-63
2022/07/21 22:45:33;;;;;;;8.70;6.40;;;;;;;21.79;53.15;99797.20;213413;1277;139909;-65
2022/07/21 22:50:37;;;;;;;16.90;6.40;;;;;;;21.66;53.73;99796.32;213939;1279;139175;-64
2022/07/21 22:55:40;;;;;;;10.80;5.90;;;;;;;21.53;54.12;99796.39;213240;1278;140132;-64
2022/07/21 23:00:44;;;;;;;17.50;8.20;;;;;;;21.39;54.57;99798.08;213418;1278;140501;-64
2022/07/21 23:05:54;;;;;;;8.20;5.40;;;;;;;21.23;54.92;99810.44;214156;1275;232184;-65
2022/07/21 23:10:57;;;;;;;5.10;4.40;;;;;;;21.10;55.05;99857.80;214066;1277;139446;-65